createdAt,value
2024-04-13T00:00:30.151Z,5
2024-04-13T00:01:30.142Z,6
2024-04-13T00:02:30.165Z,6
2024-04-13T00:03:30.225Z,6
2024-04-13T00:04:30.257Z,5
2024-04-13T00:05:30.124Z,7
2024-04-13T00:06:30.230Z,3
2024-04-13T00:07:30.122Z,7
2024-04-13T00:08:30.130Z,6
2024-04-13T00:10:30.137Z,5
2024-04-13T00:11:30.148Z,6
2024-04-13T00:12:30.186Z,7
2024-04-13T00:13:30.118Z,4
2024-04-13T00:14:30.126Z,7
2024-04-13T00:15:31.369Z,6
2024-04-13T00:16:30.149Z,4
2024-04-13T00:17:30.135Z,5
2024-04-13T00:18:30.438Z,7
2024-04-13T00:20:30.139Z,7
2024-04-13T00:21:30.243Z,6
2024-04-13T00:22:30.132Z,6
2024-04-13T00:23:30.140Z,3
2024-04-13T00:25:30.121Z,6
2024-04-13T00:26:30.171Z,5
2024-04-13T00:27:30.282Z,4
2024-04-13T00:28:30.427Z,6
2024-04-13T00:29:30.131Z,6
2024-04-13T00:30:30.196Z,6
2024-04-13T00:31:30.262Z,6
2024-04-13T00:32:30.153Z,3
2024-04-13T00:33:30.216Z,6
2024-04-13T00:35:30.132Z,6
2024-04-13T00:36:30.227Z,6
2024-04-13T00:37:32.960Z,6
2024-04-13T00:38:30.141Z,7
2024-04-13T00:39:30.165Z,3
2024-04-13T00:40:30.148Z,6
2024-04-13T00:41:30.125Z,7
2024-04-13T00:42:30.248Z,6
2024-04-13T00:43:30.130Z,8
2024-04-13T00:44:30.136Z,8
2024-04-13T00:45:30.246Z,5
2024-04-13T00:47:30.247Z,6
2024-04-13T00:48:30.402Z,4
2024-04-13T00:49:30.115Z,6
2024-04-13T00:50:30.120Z,7
2024-04-13T00:51:30.186Z,6
2024-04-13T00:52:30.143Z,4
2024-04-13T00:53:30.124Z,7
2024-04-13T00:54:30.204Z,8
2024-04-13T00:55:30.149Z,5
2024-04-13T00:57:30.195Z,9
2024-04-13T00:58:30.130Z,7
2024-04-13T00:59:30.127Z,4
2024-04-13T01:00:30.161Z,6
2024-04-13T01:01:30.138Z,6
2024-04-13T01:02:30.164Z,3
2024-04-13T01:03:30.194Z,5
2024-04-13T01:04:30.151Z,7
2024-04-13T01:05:30.139Z,4
2024-04-13T01:06:30.212Z,6
2024-04-13T01:07:30.129Z,6
2024-04-13T01:08:30.168Z,6
2024-04-13T01:09:30.441Z,6
2024-04-13T01:11:30.211Z,6
2024-04-13T01:12:30.266Z,4
2024-04-13T01:13:30.151Z,6
2024-04-13T01:15:30.157Z,5
2024-04-13T01:16:30.143Z,6
2024-04-13T01:17:30.171Z,6
2024-04-13T01:18:30.186Z,5
2024-04-13T01:19:30.151Z,7
2024-04-13T01:20:30.133Z,4
2024-04-13T01:21:30.171Z,7
2024-04-13T01:23:30.140Z,6
2024-04-13T01:24:30.216Z,8
2024-04-13T01:25:30.171Z,6
2024-04-13T01:26:30.175Z,5
2024-04-13T01:27:30.205Z,7
2024-04-13T01:28:32.074Z,7
2024-04-13T01:29:30.134Z,6
2024-04-13T01:30:30.247Z,6
2024-04-13T01:31:30.153Z,5
2024-04-13T01:32:30.274Z,8
2024-04-13T01:33:30.428Z,6
2024-04-13T01:34:30.381Z,5
2024-04-13T01:35:30.196Z,8
2024-04-13T01:36:30.324Z,6
2024-04-13T01:37:30.244Z,8
2024-04-13T01:38:30.146Z,5
2024-04-13T01:40:30.132Z,5
2024-04-13T01:41:30.155Z,7
2024-04-13T01:42:30.165Z,4
2024-04-13T01:43:30.143Z,8
2024-04-13T01:45:30.185Z,8
2024-04-13T01:46:30.133Z,4
2024-04-13T01:47:30.243Z,7
2024-04-13T01:48:30.226Z,6
2024-04-13T01:49:30.136Z,7
2024-04-13T01:50:30.147Z,5
2024-04-13T01:51:30.269Z,7
2024-04-13T01:52:30.156Z,7
2024-04-13T01:53:30.135Z,6
2024-04-13T01:54:30.180Z,3
2024-04-13T01:55:30.133Z,6
2024-04-13T01:56:30.155Z,6
2024-04-13T01:57:30.204Z,8
2024-04-13T01:59:30.129Z,7
2024-04-13T02:00:30.227Z,6
2024-04-13T02:01:30.180Z,4
2024-04-13T02:02:30.133Z,7
2024-04-13T02:03:30.236Z,7
2024-04-13T02:05:30.139Z,8
2024-04-13T02:06:30.235Z,6
2024-04-13T02:07:30.134Z,6
2024-04-13T02:08:30.157Z,8
2024-04-13T02:09:30.311Z,5
2024-04-13T02:10:30.134Z,7
2024-04-13T02:11:30.312Z,9
2024-04-13T02:12:30.162Z,6
2024-04-13T02:13:30.124Z,7
2024-04-13T02:14:30.155Z,6
2024-04-13T02:15:30.161Z,6
2024-04-13T02:16:30.224Z,8
2024-04-13T02:17:30.174Z,6
2024-04-13T02:18:30.309Z,7
2024-04-13T02:19:30.185Z,5
2024-04-13T02:20:30.156Z,7
2024-04-13T02:21:30.169Z,7
2024-04-13T02:22:30.139Z,8
2024-04-13T02:23:30.151Z,6
2024-04-13T02:24:30.210Z,6
2024-04-13T02:25:30.149Z,6
2024-04-13T02:26:30.163Z,9
2024-04-13T02:27:30.164Z,6
2024-04-13T02:28:30.166Z,8
2024-04-13T02:30:30.171Z,7
2024-04-13T02:32:30.209Z,6
2024-04-13T02:33:30.237Z,6
2024-04-13T02:35:30.132Z,6
2024-04-13T02:36:30.172Z,7
2024-04-13T02:37:30.151Z,7
2024-04-13T02:38:30.140Z,6
2024-04-13T02:39:30.177Z,5
2024-04-13T02:40:30.145Z,7
2024-04-13T02:41:30.194Z,5
2024-04-13T02:42:30.199Z,5
2024-04-13T02:43:30.144Z,8
2024-04-13T02:44:30.145Z,8
2024-04-13T02:45:30.330Z,7
2024-04-13T02:46:30.149Z,8
2024-04-13T02:47:30.196Z,7
2024-04-13T02:48:30.215Z,8
2024-04-13T02:49:30.202Z,6
2024-04-13T02:50:30.169Z,6
2024-04-13T02:51:30.250Z,8
2024-04-13T02:52:30.174Z,8
2024-04-13T02:53:30.161Z,7
2024-04-13T02:55:30.151Z,6
2024-04-13T02:56:30.157Z,6
2024-04-13T02:58:30.157Z,6
2024-04-13T02:59:30.151Z,6
2024-04-13T03:00:30.252Z,6
2024-04-13T03:01:30.151Z,7
2024-04-13T03:02:30.164Z,5
2024-04-13T03:03:30.241Z,7
2024-04-13T03:04:30.186Z,6
2024-04-13T03:05:30.152Z,5
2024-04-13T03:06:30.168Z,4
2024-04-13T03:07:30.164Z,7
2024-04-13T03:09:30.176Z,5
2024-04-13T03:10:30.159Z,8
2024-04-13T03:11:30.214Z,6
2024-04-13T03:12:30.204Z,5
2024-04-13T03:13:30.171Z,5
2024-04-13T03:15:30.208Z,4
2024-04-13T03:16:30.159Z,7
2024-04-13T03:17:30.254Z,6
2024-04-13T03:18:30.166Z,4
2024-04-13T03:19:30.136Z,7
2024-04-13T03:21:30.191Z,6
2024-04-13T03:22:30.150Z,5
2024-04-13T03:23:30.150Z,6
2024-04-13T03:24:30.162Z,5
2024-04-13T03:25:30.156Z,6
2024-04-13T03:26:30.181Z,9
2024-04-13T03:27:30.171Z,8
2024-04-13T03:28:30.155Z,5
2024-04-13T03:29:30.167Z,6
2024-04-13T03:31:30.160Z,7
2024-04-13T03:33:30.294Z,6
2024-04-13T03:34:30.161Z,7
2024-04-13T03:35:30.177Z,7
2024-04-13T03:36:30.163Z,5
2024-04-13T03:37:30.140Z,6
2024-04-13T03:38:30.262Z,7
2024-04-13T03:39:30.161Z,6
2024-04-13T03:40:30.174Z,5
2024-04-13T03:41:30.165Z,5
2024-04-13T03:42:30.243Z,6
2024-04-13T03:43:30.157Z,7
2024-04-13T03:44:30.147Z,6
2024-04-13T03:45:30.227Z,6
2024-04-13T03:46:30.162Z,5
2024-04-13T03:47:30.342Z,5
2024-04-13T03:48:30.407Z,4
2024-04-13T03:49:30.145Z,6
2024-04-13T03:50:30.197Z,7
2024-04-13T03:51:30.193Z,7
2024-04-13T03:52:30.167Z,7
2024-04-13T03:53:30.149Z,5
2024-04-13T03:54:30.177Z,5
2024-04-13T03:55:30.149Z,6
2024-04-13T03:56:30.173Z,6
2024-04-13T03:57:30.219Z,7
2024-04-13T03:58:30.164Z,8
2024-04-13T03:59:30.149Z,8
2024-04-13T04:00:30.252Z,6
2024-04-13T04:02:30.146Z,6
2024-04-13T04:03:30.225Z,6
2024-04-13T04:04:30.164Z,6
2024-04-13T04:05:30.170Z,6
2024-04-13T04:06:30.153Z,6
2024-04-13T04:07:30.156Z,7
2024-04-13T04:08:30.160Z,6
2024-04-13T04:09:30.180Z,7
2024-04-13T04:10:30.251Z,7
2024-04-13T04:11:30.218Z,6
2024-04-13T04:12:30.246Z,6
2024-04-13T04:13:30.182Z,5
2024-04-13T04:14:30.155Z,8
2024-04-13T04:15:30.305Z,7
2024-04-13T04:17:30.264Z,5
2024-04-13T04:18:30.232Z,6
2024-04-13T04:19:30.165Z,8
2024-04-13T04:20:30.145Z,7
2024-04-13T04:21:30.218Z,5
2024-04-13T04:22:30.174Z,6
2024-04-13T04:23:30.154Z,9
2024-04-13T04:24:30.197Z,8
2024-04-13T04:25:30.160Z,8
2024-04-13T04:26:30.178Z,6
2024-04-13T04:27:30.180Z,5
2024-04-13T04:29:30.147Z,7
2024-04-13T04:30:30.200Z,6
2024-04-13T04:31:30.174Z,6
2024-04-13T04:32:30.275Z,6
2024-04-13T04:33:30.206Z,5
2024-04-13T04:34:30.159Z,5
2024-04-13T04:35:30.167Z,7
2024-04-13T04:36:30.172Z,7
2024-04-13T04:37:30.165Z,7
2024-04-13T04:38:30.172Z,4
2024-04-13T04:39:30.239Z,5
2024-04-13T04:40:30.162Z,4
2024-04-13T04:41:30.154Z,6
2024-04-13T04:42:30.166Z,6
2024-04-13T04:43:30.189Z,7
2024-04-13T04:44:30.159Z,7
2024-04-13T04:45:30.186Z,7
2024-04-13T04:46:30.155Z,6
2024-04-13T04:47:30.216Z,8
2024-04-13T04:48:30.327Z,6
2024-04-13T04:49:30.165Z,6
2024-04-13T04:50:30.154Z,7
2024-04-13T04:51:30.170Z,6
2024-04-13T04:52:30.152Z,6
2024-04-13T04:54:30.203Z,6
2024-04-13T04:55:30.159Z,7
2024-04-13T04:56:30.190Z,6
2024-04-13T04:57:30.344Z,7
2024-04-13T04:58:30.182Z,7
2024-04-13T04:59:30.158Z,7
2024-04-13T05:00:30.203Z,7
2024-04-13T05:01:30.167Z,7
2024-04-13T05:02:30.384Z,6
2024-04-13T05:03:30.208Z,4
2024-04-13T05:05:30.150Z,6
2024-04-13T05:06:30.219Z,5
2024-04-13T05:07:30.163Z,7
2024-04-13T05:08:30.165Z,5
2024-04-13T05:09:30.245Z,7
2024-04-13T05:10:30.186Z,5
2024-04-13T05:11:30.210Z,7
2024-04-13T05:12:30.180Z,7
2024-04-13T05:13:30.152Z,6
2024-04-13T05:14:30.167Z,7
2024-04-13T05:15:30.241Z,6
2024-04-13T05:16:30.432Z,6
2024-04-13T05:17:30.204Z,6
2024-04-13T05:18:30.389Z,5
2024-04-13T05:19:30.309Z,6
2024-04-13T05:20:30.159Z,8
2024-04-13T05:21:30.172Z,6
2024-04-13T05:22:30.169Z,6
2024-04-13T05:23:30.156Z,7
2024-04-13T05:24:30.186Z,5
2024-04-13T05:25:30.173Z,7
2024-04-13T05:26:30.165Z,9
2024-04-13T05:27:30.175Z,7
2024-04-13T05:28:30.167Z,6
2024-04-13T05:29:30.166Z,8
2024-04-13T05:30:30.227Z,8
2024-04-13T05:31:30.170Z,7
2024-04-13T05:32:30.205Z,8
2024-04-13T05:33:30.416Z,9
2024-04-13T05:35:30.170Z,6
2024-04-13T05:36:30.391Z,7
2024-04-13T05:37:30.165Z,6
2024-04-13T05:39:30.442Z,5
2024-04-13T05:40:30.157Z,8
2024-04-13T05:41:30.166Z,9
2024-04-13T05:42:30.203Z,6
2024-04-13T05:43:30.185Z,8
2024-04-13T05:45:30.199Z,10
2024-04-13T05:46:30.188Z,7
2024-04-13T05:47:30.261Z,5
2024-04-13T05:48:30.222Z,8
2024-04-13T05:49:30.175Z,6
2024-04-13T05:50:30.162Z,7
2024-04-13T05:51:30.236Z,6
2024-04-13T05:52:30.160Z,7
2024-04-13T05:53:30.172Z,7
2024-04-13T05:54:30.189Z,5
2024-04-13T05:55:30.189Z,6
2024-04-13T05:56:30.178Z,7
2024-04-13T05:57:30.190Z,7
2024-04-13T05:58:30.164Z,10
2024-04-13T05:59:30.179Z,7
2024-04-13T06:00:30.328Z,6
2024-04-13T06:01:30.240Z,8
2024-04-13T06:02:30.185Z,8
2024-04-13T06:03:30.246Z,7
2024-04-13T06:04:30.240Z,8
2024-04-13T06:05:30.169Z,7
2024-04-13T06:06:30.223Z,10
2024-04-13T06:07:30.202Z,7
2024-04-13T06:09:30.185Z,8
2024-04-13T06:10:30.165Z,7
2024-04-13T06:11:30.269Z,6
2024-04-13T06:12:30.247Z,9
2024-04-13T06:13:30.182Z,10
2024-04-13T06:14:30.174Z,8
2024-04-13T06:15:30.227Z,7
2024-04-13T06:16:30.217Z,7
2024-04-13T06:17:30.161Z,7
2024-04-13T06:18:30.209Z,6
2024-04-13T06:19:30.169Z,5
2024-04-13T06:20:30.179Z,7
2024-04-13T06:21:30.292Z,8
2024-04-13T06:22:30.165Z,9
2024-04-13T06:23:30.171Z,6
2024-04-13T06:25:30.178Z,8
2024-04-13T06:26:30.166Z,6
2024-04-13T06:27:30.201Z,6
2024-04-13T06:28:30.162Z,6
2024-04-13T06:29:30.178Z,6
2024-04-13T06:30:30.242Z,5
2024-04-13T06:31:30.192Z,6
2024-04-13T06:32:30.275Z,6
2024-04-13T06:33:30.236Z,7
2024-04-13T06:34:30.233Z,9
2024-04-13T06:35:30.165Z,8
2024-04-13T06:36:30.207Z,6
2024-04-13T06:37:30.193Z,8
2024-04-13T06:38:30.166Z,5
2024-04-13T06:39:30.199Z,7
2024-04-13T06:41:30.204Z,6
2024-04-13T06:42:30.181Z,7
2024-04-13T06:45:30.181Z,7
2024-04-13T06:46:30.218Z,6
2024-04-13T06:47:31.084Z,8
2024-04-13T06:48:30.208Z,6
2024-04-13T06:49:30.173Z,6
2024-04-13T06:50:30.172Z,7
2024-04-13T06:51:30.283Z,6
2024-04-13T06:52:30.179Z,5
2024-04-13T06:53:30.169Z,6
2024-04-13T06:54:30.258Z,7
2024-04-13T06:55:30.176Z,7
2024-04-13T06:56:30.186Z,5
2024-04-13T06:57:30.202Z,6
2024-04-13T06:58:30.179Z,7
2024-04-13T06:59:30.171Z,7
2024-04-13T07:00:30.233Z,8
2024-04-13T07:01:30.216Z,8
2024-04-13T07:02:30.183Z,8
2024-04-13T07:03:30.225Z,7
2024-04-13T07:04:30.221Z,8
2024-04-13T07:05:30.164Z,6
2024-04-13T07:06:32.846Z,10
2024-04-13T07:07:30.166Z,6
2024-04-13T07:08:30.666Z,7
2024-04-13T07:09:30.242Z,6
2024-04-13T07:10:30.203Z,9
2024-04-13T07:11:30.193Z,5
2024-04-13T07:12:30.175Z,5
2024-04-13T07:13:30.166Z,5
2024-04-13T07:14:30.184Z,6
2024-04-13T07:15:30.179Z,6
2024-04-13T07:16:30.248Z,5
2024-04-13T07:17:30.220Z,6
2024-04-13T07:18:30.225Z,7
2024-04-13T07:19:30.185Z,6
2024-04-13T07:20:30.271Z,6
2024-04-13T07:21:30.187Z,5
2024-04-13T07:22:30.177Z,5
2024-04-13T07:23:30.201Z,4
2024-04-13T07:24:30.263Z,6
2024-04-13T07:25:30.193Z,7
2024-04-13T07:26:30.202Z,4
2024-04-13T07:27:30.178Z,6
2024-04-13T07:28:30.212Z,5
2024-04-13T07:29:30.184Z,7
2024-04-13T07:30:30.218Z,6
2024-04-13T07:31:30.182Z,7
2024-04-13T07:32:30.254Z,6
2024-04-13T07:33:30.456Z,6
2024-04-13T07:34:30.178Z,5
2024-04-13T07:35:30.209Z,7
2024-04-13T07:36:30.237Z,6
2024-04-13T07:37:30.192Z,6
2024-04-13T07:38:30.195Z,5
2024-04-13T07:39:30.239Z,4
2024-04-13T07:40:30.228Z,5
2024-04-13T07:41:30.204Z,8
2024-04-13T07:42:30.207Z,6
2024-04-13T07:43:30.181Z,7
2024-04-13T07:45:30.347Z,6
2024-04-13T07:48:30.300Z,6
2024-04-13T07:49:30.191Z,7
2024-04-13T07:50:30.186Z,6
2024-04-13T07:51:30.240Z,5
2024-04-13T07:52:30.180Z,5
2024-04-13T07:53:30.180Z,7
2024-04-13T07:54:30.224Z,6
2024-04-13T07:55:30.203Z,5
2024-04-13T07:56:30.211Z,5
2024-04-13T07:57:30.255Z,5
2024-04-13T07:58:30.196Z,5
2024-04-13T07:59:30.176Z,6
2024-04-13T08:00:30.224Z,8
2024-04-13T08:01:30.241Z,5
2024-04-13T08:02:30.198Z,6
2024-04-13T08:03:30.302Z,6
2024-04-13T08:04:30.336Z,6
2024-04-13T08:05:30.192Z,5
2024-04-13T08:07:30.197Z,5
2024-04-13T08:08:30.183Z,6
2024-04-13T08:09:30.229Z,5
2024-04-13T08:10:30.200Z,6
2024-04-13T08:11:30.212Z,6
2024-04-13T08:12:30.199Z,6
2024-04-13T08:15:30.234Z,7
2024-04-13T08:16:30.234Z,7
2024-04-13T08:17:30.191Z,6
2024-04-13T08:18:30.207Z,5
2024-04-13T08:19:30.186Z,7
2024-04-13T08:20:30.194Z,4
2024-04-13T08:21:30.283Z,5
2024-04-13T08:22:30.207Z,6
2024-04-13T08:23:30.223Z,6
2024-04-13T08:25:30.196Z,7
2024-04-13T08:26:30.219Z,7
2024-04-13T08:27:32.895Z,5
2024-04-13T08:28:30.180Z,5
2024-04-13T08:29:30.209Z,5
2024-04-13T08:30:30.231Z,5
2024-04-13T08:31:30.221Z,7
2024-04-13T08:32:30.231Z,7
2024-04-13T08:33:30.215Z,6
2024-04-13T08:35:30.203Z,6
2024-04-13T08:36:30.263Z,6
2024-04-13T08:37:30.222Z,6
2024-04-13T08:38:30.196Z,5
2024-04-13T08:39:30.217Z,6
2024-04-13T08:41:30.223Z,7
2024-04-13T08:42:30.218Z,5
2024-04-13T08:43:30.198Z,5
2024-04-13T08:44:30.201Z,6
2024-04-13T08:45:30.445Z,4
2024-04-13T08:46:30.197Z,5
2024-04-13T08:47:30.280Z,6
2024-04-13T08:48:30.292Z,5
2024-04-13T08:49:30.299Z,5
2024-04-13T08:50:30.206Z,6
2024-04-13T08:51:30.238Z,4
2024-04-13T08:53:30.203Z,5
2024-04-13T08:54:30.218Z,5
2024-04-13T08:55:30.208Z,5
2024-04-13T08:56:31.944Z,6
2024-04-13T08:57:30.236Z,6
2024-04-13T08:58:30.202Z,5
2024-04-13T08:59:30.207Z,6
2024-04-13T09:00:30.264Z,5
2024-04-13T09:01:30.271Z,5
2024-04-13T09:03:30.356Z,4
2024-04-13T09:04:30.263Z,5
2024-04-13T09:05:30.199Z,6
2024-04-13T09:06:30.219Z,5
2024-04-13T09:08:30.209Z,6
2024-04-13T09:09:30.229Z,4
2024-04-13T09:10:30.215Z,5
2024-04-13T09:11:30.262Z,4
2024-04-13T09:13:30.207Z,4
2024-04-13T09:14:30.192Z,7
2024-04-13T09:15:30.242Z,6
2024-04-13T09:16:30.212Z,7
2024-04-13T09:17:30.362Z,6
2024-04-13T09:18:30.438Z,5
2024-04-13T09:19:30.325Z,5
2024-04-13T09:20:30.224Z,4
2024-04-13T09:21:30.218Z,6
2024-04-13T09:22:30.215Z,4
2024-04-13T09:23:30.204Z,4
2024-04-13T09:24:30.246Z,4
2024-04-13T09:25:30.229Z,5
2024-04-13T09:26:30.275Z,4
2024-04-13T09:27:30.222Z,5
2024-04-13T09:28:30.234Z,4
2024-04-13T09:30:30.232Z,5
2024-04-13T09:31:30.236Z,6
2024-04-13T09:32:30.258Z,5
2024-04-13T09:33:30.352Z,4
2024-04-13T09:35:30.221Z,4
2024-04-13T09:36:30.249Z,4
2024-04-13T09:37:30.216Z,5
2024-04-13T09:38:30.217Z,4
2024-04-13T09:39:30.270Z,6
2024-04-13T09:40:30.225Z,5
2024-04-13T09:41:30.218Z,4
2024-04-13T09:42:30.246Z,6
2024-04-13T09:43:30.236Z,7
2024-04-13T09:45:30.318Z,6
2024-04-13T09:46:30.279Z,5
2024-04-13T09:47:30.239Z,3
2024-04-13T09:48:30.405Z,5
2024-04-13T09:49:30.260Z,6
2024-04-13T09:50:30.210Z,5
2024-04-13T09:51:30.239Z,3
2024-04-13T09:52:30.231Z,4
2024-04-13T09:53:30.215Z,3
2024-04-13T09:54:30.231Z,4
2024-04-13T09:55:30.228Z,6
2024-04-13T09:57:30.283Z,6
2024-04-13T09:58:30.235Z,4
2024-04-13T09:59:30.248Z,3
2024-04-13T10:00:30.415Z,3
2024-04-13T10:01:30.426Z,3
2024-04-13T10:02:30.233Z,4
2024-04-13T10:03:30.357Z,5
2024-04-13T10:04:30.346Z,5
2024-04-13T10:05:30.227Z,3
2024-04-13T10:06:30.239Z,7
2024-04-13T10:07:30.245Z,6
2024-04-13T10:08:30.242Z,3
2024-04-13T10:09:30.245Z,7
2024-04-13T10:10:30.231Z,4
2024-04-13T10:11:30.280Z,4
2024-04-13T10:12:30.282Z,4
2024-04-13T10:13:30.228Z,3
2024-04-13T10:15:30.278Z,3
2024-04-13T10:16:30.248Z,5
2024-04-13T10:17:30.337Z,5
2024-04-13T10:18:30.267Z,5
2024-04-13T10:19:30.231Z,5
2024-04-13T10:20:30.237Z,5
2024-04-13T10:21:30.289Z,5
2024-04-13T10:22:37.785Z,5
2024-04-13T10:23:30.268Z,4
2024-04-13T10:24:30.279Z,5
2024-04-13T10:25:30.267Z,7
2024-04-13T10:26:30.231Z,4
2024-04-13T10:27:30.282Z,5
2024-04-13T10:28:30.241Z,4
2024-04-13T10:29:30.258Z,5
2024-04-13T10:30:30.312Z,4
2024-04-13T10:31:30.292Z,4
2024-04-13T10:32:30.240Z,4
2024-04-13T10:33:30.341Z,5
2024-04-13T10:34:30.242Z,7
2024-04-13T10:35:30.246Z,4
2024-04-13T10:36:30.263Z,5
2024-04-13T10:37:30.246Z,3
2024-04-13T10:38:30.260Z,4
2024-04-13T10:39:30.362Z,3
2024-04-13T10:40:30.243Z,4
2024-04-13T10:41:30.259Z,3
2024-04-13T10:42:30.322Z,3
2024-04-13T10:44:30.236Z,5
2024-04-13T10:45:30.240Z,4
2024-04-13T10:46:30.232Z,5
2024-04-13T10:47:30.253Z,3
2024-04-13T10:48:30.393Z,3
2024-04-13T10:49:30.317Z,5
2024-04-13T10:51:30.307Z,5
2024-04-13T10:52:30.253Z,6
2024-04-13T10:53:30.347Z,3
2024-04-13T10:54:30.270Z,4
2024-04-13T10:55:30.265Z,3
2024-04-13T10:56:30.259Z,3
2024-04-13T10:57:30.304Z,4
2024-04-13T10:59:30.231Z,8
2024-04-13T11:00:30.340Z,5
2024-04-13T11:01:30.421Z,4
2024-04-13T11:02:30.294Z,3
2024-04-13T11:03:30.586Z,4
2024-04-13T11:05:30.234Z,4
2024-04-13T11:06:30.265Z,4
2024-04-13T11:07:30.276Z,5
2024-04-13T11:08:30.248Z,4
2024-04-13T11:09:30.351Z,3
2024-04-13T11:10:30.245Z,4
2024-04-13T11:11:30.349Z,3
2024-04-13T11:12:30.318Z,3
2024-04-13T11:13:30.243Z,4
2024-04-13T11:14:30.246Z,4
2024-04-13T11:15:30.270Z,3
2024-04-13T11:16:30.311Z,3
2024-04-13T11:17:30.332Z,5
2024-04-13T11:18:30.444Z,4
2024-04-13T11:20:30.239Z,6
2024-04-13T11:21:30.300Z,3
2024-04-13T11:22:30.258Z,3
2024-04-13T11:23:30.283Z,4
2024-04-13T11:24:30.458Z,3
2024-04-13T11:25:30.250Z,4
2024-04-13T11:26:30.287Z,3
2024-04-13T11:27:30.337Z,3
2024-04-13T11:28:30.361Z,3
2024-04-13T11:29:30.351Z,3
2024-04-13T11:30:30.380Z,3
2024-04-13T11:31:30.387Z,2
2024-04-13T11:32:30.339Z,3
2024-04-13T11:33:30.404Z,2
2024-04-13T11:35:30.363Z,3
2024-04-13T11:36:30.446Z,4
2024-04-13T11:37:30.255Z,5
2024-04-13T11:38:30.399Z,3
2024-04-13T11:39:30.453Z,3
2024-04-13T11:40:30.356Z,2
2024-04-13T11:41:30.267Z,3
2024-04-13T11:42:35.321Z,5
2024-04-13T11:43:30.418Z,5
2024-04-13T11:44:30.300Z,4
2024-04-13T11:45:30.301Z,5
2024-04-13T11:46:30.270Z,3
2024-04-13T11:47:30.330Z,2
2024-04-13T11:48:30.403Z,4
2024-04-13T11:49:33.494Z,4
2024-04-13T11:50:30.259Z,4
2024-04-13T11:51:30.280Z,2
2024-04-13T11:52:32.792Z,3
2024-04-13T11:53:30.271Z,2
2024-04-13T11:54:30.332Z,3
2024-04-13T11:55:30.255Z,3
2024-04-13T11:56:30.266Z,3
2024-04-13T11:57:30.332Z,3
2024-04-13T11:58:30.285Z,3
2024-04-13T11:59:30.270Z,3
2024-04-13T12:00:30.408Z,4
2024-04-13T12:01:30.443Z,3
2024-04-13T12:02:30.424Z,3
2024-04-13T12:03:30.551Z,5
2024-04-13T12:04:30.675Z,2
2024-04-13T12:05:30.334Z,4
2024-04-13T12:06:30.287Z,4
2024-04-13T12:07:30.267Z,4
2024-04-13T12:08:30.289Z,4
2024-04-13T12:10:30.273Z,3
2024-04-13T12:11:30.283Z,3
2024-04-13T12:12:30.310Z,4
2024-04-13T12:13:30.349Z,2
2024-04-13T12:15:30.332Z,2
2024-04-13T12:16:30.317Z,5
2024-04-13T12:17:30.353Z,4
2024-04-13T12:18:30.336Z,2
2024-04-13T12:19:30.563Z,4
2024-04-13T12:20:30.296Z,2
2024-04-13T12:21:30.301Z,4
2024-04-13T12:22:30.283Z,4
2024-04-13T12:23:30.283Z,4
2024-04-13T12:24:30.299Z,5
2024-04-13T12:25:30.270Z,4
2024-04-13T12:26:30.276Z,2
2024-04-13T12:27:30.343Z,2
2024-04-13T12:28:30.293Z,4
2024-04-13T12:29:30.285Z,3
2024-04-13T12:30:30.290Z,2
2024-04-13T12:31:30.274Z,2
2024-04-13T12:32:30.435Z,2
2024-04-13T12:33:30.409Z,2
2024-04-13T12:34:30.284Z,3
2024-04-13T12:35:30.292Z,4
2024-04-13T12:36:30.325Z,3
2024-04-13T12:38:30.299Z,3
2024-04-13T12:39:30.357Z,3
2024-04-13T12:40:30.283Z,3
2024-04-13T12:41:30.287Z,3
2024-04-13T12:42:30.330Z,3
2024-04-13T12:43:30.289Z,5
2024-04-13T12:45:30.307Z,2
2024-04-13T12:46:30.297Z,4
2024-04-13T12:47:30.315Z,3
2024-04-13T12:48:30.443Z,3
2024-04-13T12:49:30.350Z,2
2024-04-13T12:50:30.318Z,3
2024-04-13T12:51:30.340Z,3
2024-04-13T12:52:30.310Z,3
2024-04-13T12:53:30.290Z,2
2024-04-13T12:54:30.349Z,3
2024-04-13T12:55:30.294Z,2
2024-04-13T12:56:30.298Z,2
2024-04-13T12:57:30.336Z,7
2024-04-13T12:58:30.296Z,3
2024-04-13T12:59:30.295Z,2
2024-04-13T13:00:30.322Z,3
2024-04-13T13:01:30.362Z,6
2024-04-13T13:02:30.336Z,2
2024-04-13T13:03:30.393Z,3
2024-04-13T13:04:30.345Z,2
2024-04-13T13:05:30.298Z,3
2024-04-13T13:06:30.322Z,3
2024-04-13T13:07:30.297Z,3
2024-04-13T13:09:30.336Z,3
2024-04-13T13:11:30.302Z,3
2024-04-13T13:12:30.485Z,2
2024-04-13T13:14:30.309Z,4
2024-04-13T13:15:30.330Z,3
2024-04-13T13:16:30.349Z,3
2024-04-13T13:17:30.323Z,2
2024-04-13T13:18:30.353Z,2
2024-04-13T13:19:30.295Z,2
2024-04-13T13:20:30.292Z,2
2024-04-13T13:21:30.337Z,2
2024-04-13T13:22:30.298Z,2
2024-04-13T13:23:30.319Z,3
2024-04-13T13:24:30.360Z,4
2024-04-13T13:25:30.298Z,2
2024-04-13T13:27:30.348Z,4
2024-04-13T13:28:30.319Z,1
2024-04-13T13:29:30.316Z,2
2024-04-13T13:30:30.369Z,1
2024-04-13T13:31:30.299Z,2
2024-04-13T13:32:30.421Z,1
2024-04-13T13:33:30.468Z,1
2024-04-13T13:35:30.298Z,1
2024-04-13T13:36:30.348Z,1
2024-04-13T13:37:30.305Z,2
2024-04-13T13:38:30.295Z,1
2024-04-13T13:39:30.332Z,1
2024-04-13T13:40:30.321Z,1
2024-04-13T13:41:30.323Z,1
2024-04-13T13:42:30.315Z,1
2024-04-13T13:43:30.306Z,5
2024-04-13T13:44:30.303Z,1
2024-04-13T13:45:30.324Z,2
2024-04-13T13:46:30.319Z,1
2024-04-13T13:47:30.387Z,1
2024-04-13T13:48:30.363Z,2
2024-04-13T13:49:30.360Z,3
2024-04-13T13:50:30.318Z,3
2024-04-13T13:51:30.357Z,1
2024-04-13T13:52:30.302Z,1
2024-04-13T13:53:30.308Z,1
2024-04-13T13:54:30.340Z,1
2024-04-13T13:55:30.331Z,1
2024-04-13T13:56:30.321Z,1
2024-04-13T13:57:30.376Z,1
2024-04-13T13:58:30.317Z,3
2024-04-13T13:59:30.334Z,4
2024-04-13T14:00:30.362Z,1
2024-04-13T14:01:30.322Z,2
2024-04-13T14:02:30.352Z,2
2024-04-13T14:03:30.420Z,3
2024-04-13T14:05:30.338Z,1
2024-04-13T14:06:30.330Z,1
2024-04-13T14:07:30.321Z,1
2024-04-13T14:08:30.315Z,1
2024-04-13T14:09:30.351Z,2
2024-04-13T14:10:30.312Z,2
2024-04-13T14:12:30.386Z,1
2024-04-13T14:13:30.415Z,1
2024-04-13T14:14:30.544Z,1
2024-04-13T14:15:30.575Z,1
2024-04-13T14:17:30.416Z,1
2024-04-13T14:18:30.389Z,1
2024-04-13T14:20:30.320Z,1
2024-04-13T14:21:30.352Z,1
2024-04-13T14:22:30.330Z,1
2024-04-13T14:23:30.346Z,1
2024-04-13T14:24:30.374Z,1
2024-04-13T14:25:30.325Z,1
2024-04-13T14:26:30.318Z,1
2024-04-13T14:27:30.342Z,2
2024-04-13T14:29:30.332Z,1
2024-04-13T14:30:30.359Z,1
2024-04-13T14:31:30.340Z,1
2024-04-13T14:32:30.417Z,1
2024-04-13T14:33:30.391Z,1
2024-04-13T14:34:30.332Z,3
2024-04-13T14:35:30.321Z,1
2024-04-13T14:36:30.356Z,1
2024-04-13T14:37:30.338Z,1
2024-04-13T14:38:30.359Z,2
2024-04-13T14:39:30.422Z,1
2024-04-13T14:40:30.328Z,2
2024-04-13T14:41:30.342Z,1
2024-04-13T14:42:33.477Z,1
2024-04-13T14:43:30.339Z,3
2024-04-13T14:45:30.381Z,1
2024-04-13T14:46:30.356Z,1
2024-04-13T14:47:30.450Z,1
2024-04-13T14:48:30.606Z,2
2024-04-13T14:49:30.416Z,1
2024-04-13T14:50:30.342Z,1
2024-04-13T14:51:30.457Z,2
2024-04-13T14:52:33.714Z,2
2024-04-13T14:53:30.345Z,2
2024-04-13T14:54:30.349Z,1
2024-04-13T14:55:30.335Z,2
2024-04-13T14:56:30.353Z,2
2024-04-13T14:57:30.381Z,1
2024-04-13T14:58:30.357Z,2
2024-04-13T14:59:30.348Z,1
2024-04-13T15:00:30.383Z,2
2024-04-13T15:01:30.436Z,1
2024-04-13T15:02:30.381Z,1
2024-04-13T15:03:30.451Z,2
2024-04-13T15:04:33.706Z,1
2024-04-13T15:05:30.334Z,2
2024-04-13T15:06:30.367Z,1
2024-04-13T15:07:30.345Z,1
2024-04-13T15:08:30.355Z,1
2024-04-13T15:09:30.649Z,1
2024-04-13T15:10:33.340Z,1
2024-04-13T15:11:30.462Z,2
2024-04-13T15:12:30.406Z,1
2024-04-13T15:13:30.345Z,1
2024-04-13T15:15:30.380Z,1
2024-04-13T15:18:30.474Z,1
2024-04-13T15:22:30.425Z,2
2024-04-13T15:23:30.372Z,1
2024-04-13T15:25:30.355Z,2
2024-04-13T15:26:30.369Z,1
2024-04-13T15:27:37.012Z,1
2024-04-13T15:28:30.356Z,2
2024-04-13T15:29:30.358Z,1
2024-04-13T15:30:30.366Z,1
2024-04-13T15:31:30.397Z,2
2024-04-13T15:33:30.446Z,3
2024-04-13T15:34:30.380Z,1
2024-04-13T15:35:30.360Z,1
2024-04-13T15:36:30.389Z,3
2024-04-13T15:37:30.367Z,1
2024-04-13T15:38:30.363Z,2
2024-04-13T15:40:30.375Z,1
2024-04-13T15:41:30.355Z,3
2024-04-13T15:42:30.376Z,1
2024-04-13T15:43:30.399Z,2
2024-04-13T15:45:30.389Z,2
2024-04-13T15:46:32.669Z,2
2024-04-13T15:47:30.456Z,2
2024-04-13T15:48:30.592Z,1
2024-04-13T15:50:30.355Z,2
2024-04-13T15:51:30.391Z,2
2024-04-13T15:52:30.371Z,2
2024-04-13T15:53:30.370Z,2
2024-04-13T15:54:30.377Z,3
2024-04-13T15:55:30.364Z,2
2024-04-13T15:56:30.396Z,3
2024-04-13T15:57:30.415Z,2
2024-04-13T15:59:30.375Z,4
2024-04-13T16:00:30.375Z,2
2024-04-13T16:01:30.429Z,2
2024-04-13T16:02:30.409Z,2
2024-04-13T16:03:30.412Z,3
2024-04-13T16:04:30.420Z,2
2024-04-13T16:05:30.374Z,3
2024-04-13T16:07:30.373Z,2
2024-04-13T16:09:30.386Z,2
2024-04-13T16:10:30.364Z,3
2024-04-13T16:12:30.433Z,2
2024-04-13T16:14:30.392Z,1
2024-04-13T16:15:30.422Z,2
2024-04-13T16:16:30.445Z,3
2024-04-13T16:17:30.403Z,2
2024-04-13T16:18:30.435Z,1